Time;durP1;ratioP1;P1;durP2;ratioP2;P2;SDS_P1;SDS_P2;PMS_P1;PMS_P2;Temp;Humidity;BMP_temperature;BMP_pressure;BME280_temperature;BME280_humidity;BME280_pressure;Samples;Min_cycle;Max_cycle;Signal;HPM_P1;HPM_P2
2023/07/01 00:01:27;;;;;;;;;;;;;;;18.54;64.89;100488.98;107611;1254;97825;-68
2023/07/01 00:03:55;;;;;;;;;;;;;;;18.51;65.19;100492.92;107577;1254;97980;-67
2023/07/01 00:06:24;;;;;;;;;;;;;;;18.48;66.06;100492.27;107672;1256;112038;-68
2023/07/01 00:08:53;;;;;;;;;;;;;;;18.43;65.89;100493.01;107642;1252;110035;-67
2023/07/01 00:11:21;;;;;;;;;;;;;;;18.40;66.97;100496.38;107606;1256;107656;-68
2023/07/01 00:13:50;;;;;;;;;;;;;;;18.35;67.21;100502.88;107598;1256;97834;-68
2023/07/01 00:16:18;;;;;;;;;;;;;;;18.33;67.22;100503.98;107645;1251;97710;-68
2023/07/01 00:18:46;;;;;;;;;;;;;;;18.31;67.01;100506.86;107641;1256;112379;-67
2023/07/01 00:21:14;;;;;;;;;;;;;;;18.35;66.99;100510.95;107712;1251;110066;-67
2023/07/01 00:23:43;;;;;;;;;;;;;;;18.38;66.91;100514.20;107551;1254;108308;-67
2023/07/01 00:26:11;;;;;;;;;;;;;;;18.39;67.03;100517.33;107621;1254;97847;-69
2023/07/01 00:28:40;;;;;;;;;;;;;;;18.39;67.09;100517.25;107711;1254;97842;-68
2023/07/01 00:31:08;;;;;;;;;;;;;;;18.42;66.97;100521.34;107558;1257;113040;-68
2023/07/01 00:33:36;;;;;;;;;;;;;;;18.42;67.07;100519.98;107557;1254;109363;-69
2023/07/01 00:36:04;;;;;;;;;;;;;;;18.44;67.11;100515.61;107602;1251;108316;-70
2023/07/01 00:38:32;;;;;;;;;;;;;;;18.45;67.06;100515.80;107685;1251;97823;-71
2023/07/01 00:41:01;;;;;;;;;;;;;;;18.47;67.18;100515.55;107604;1257;97691;-68
2023/07/01 00:43:29;;;;;;;;;;;;;;;18.47;67.05;100515.55;107643;1256;111848;-68
2023/07/01 00:45:57;;;;;;;;;;;;;;;18.49;67.31;100514.48;107588;1254;109830;-67
2023/07/01 00:48:26;;;;;;;;;;;;;;;18.49;67.19;100514.58;107637;1255;107983;-68
2023/07/01 00:50:55;;;;;;;;;;;;;;;18.50;67.39;100511.40;107620;1254;97838;-65
2023/07/01 00:53:23;;;;;;;;;;;;;;;18.52;67.05;100508.47;107653;1254;97710;-67
2023/07/01 00:55:52;;;;;;;;;;;;;;;18.52;66.90;100509.02;107615;1255;111688;-66
2023/07/01 00:58:20;;;;;;;;;;;;;;;18.52;67.17;100502.78;107545;1254;109854;-68
2023/07/01 01:00:49;;;;;;;;;;;;;;;18.53;67.10;100504.64;107584;1256;106144;-68
2023/07/01 01:03:28;;;;;;;;;;;;;;;18.53;67.07;100502.45;107536;1256;97837;-68
2023/07/01 01:06:12;;;;;;;;;;;;;;;18.53;67.18;100496.98;107620;1254;97687;-70
2023/07/01 01:08:47;;;;;;;;;;;;;;;18.51;66.92;100494.55;107618;1256;112238;-67
2023/07/01 01:11:16;;;;;;;;;;;;;;;18.50;66.87;100494.14;107621;1256;109124;-68
2023/07/01 01:13:46;;;;;;;;;;;;;;;18.50;66.87;100489.79;107653;1251;108430;-67
2023/07/01 01:16:14;;;;;;;;;;;;;;;18.48;66.73;100489.30;107597;1254;97822;-68
2023/07/01 01:18:43;;;;;;;;;;;;;;;18.47;66.66;100490.92;107571;1250;97816;-67
2023/07/01 01:21:13;;;;;;;;;;;;;;;18.45;66.93;100491.48;107564;1251;111174;-67
2023/07/01 01:23:43;;;;;;;;;;;;;;;18.42;66.98;100489.83;107662;1253;109636;-67
2023/07/01 01:26:26;;;;;;;;;;;;;;;18.40;66.91;100492.25;107591;1254;108297;-67
2023/07/01 01:28:55;;;;;;;;;;;;;;;18.40;67.16;100489.27;107646;1254;97870;-69
2023/07/01 01:31:23;;;;;;;;;;;;;;;18.38;67.17;100486.39;107611;1254;97833;-68
2023/07/01 01:33:51;;;;;;;;;;;;;;;18.34;66.79;100488.20;107686;1255;111750;-68
2023/07/01 01:36:30;;;;;;;;;;;;;;;18.27;66.79;100483.27;107543;1252;109719;-68
2023/07/01 01:39:05;;;;;;;;;;;;;;;18.19;66.91;100485.91;107652;1254;109838;-69
2023/07/01 01:41:53;;;;;;;;;;;;;;;18.13;67.67;100484.77;107531;1254;97806;-67
2023/07/01 01:44:27;;;;;;;;;;;;;;;18.10;67.47;100486.73;107646;1256;97797;-67
2023/07/01 01:46:56;;;;;;;;;;;;;;;18.09;67.38;100483.64;107627;1255;111715;-67
2023/07/01 01:49:25;;;;;;;;;;;;;;;18.07;67.56;100486.99;107598;1256;108888;-67
2023/07/01 01:51:54;;;;;;;;;;;;;;;18.06;67.49;100480.17;107619;1257;108054;-67
2023/07/01 01:54:23;;;;;;;;;;;;;;;18.06;67.83;100479.71;107480;1251;97813;-67
2023/07/01 01:56:51;;;;;;;;;;;;;;;18.06;67.95;100477.87;107598;1257;97815;-67
2023/07/01 01:59:20;;;;;;;;;;;;;;;18.05;67.65;100473.29;107632;1256;112795;-67
2023/07/01 02:01:48;;;;;;;;;;;;;;;18.04;67.86;100471.60;107562;1257;109229;-70
2023/07/01 02:04:16;;;;;;;;;;;;;;;18.03;67.93;100472.27;107629;1255;109108;-69
2023/07/01 02:06:44;;;;;;;;;;;;;;;18.03;68.02;100475.02;107627;1254;97850;-70
2023/07/01 02:09:13;;;;;;;;;;;;;;;18.04;68.16;100474.45;107602;1254;97860;-66
2023/07/01 02:11:42;;;;;;;;;;;;;;;18.06;67.89;100475.52;107556;1254;112476;-67
2023/07/01 02:14:10;;;;;;;;;;;;;;;18.05;68.06;100474.55;107536;1251;110142;-69
2023/07/01 02:16:38;;;;;;;;;;;;;;;18.05;68.39;100477.85;107576;1251;108325;-67
2023/07/01 02:19:07;;;;;;;;;;;;;;;18.06;68.45;100483.69;107627;1251;97900;-67
2023/07/01 02:21:35;;;;;;;;;;;;;;;18.08;68.84;100491.95;107599;1254;97812;-68
2023/07/01 02:24:04;;;;;;;;;;;;;;;18.11;69.33;100489.25;107563;1251;110819;-67
2023/07/01 02:26:32;;;;;;;;;;;;;;;18.13;68.72;100492.26;107528;1254;108453;-68
2023/07/01 02:29:00;;;;;;;;;;;;;;;18.11;68.73;100492.79;107527;1251;108101;-68
2023/07/01 02:31:28;;;;;;;;;;;;;;;18.13;68.79;100493.45;107500;1251;97783;-69
2023/07/01 02:34:02;;;;;;;;;;;;;;;18.14;68.75;100492.23;107598;1251;97989;-67
2023/07/01 02:36:31;;;;;;;;;;;;;;;18.17;69.25;100493.93;107513;1254;110380;-67
2023/07/01 02:39:00;;;;;;;;;;;;;;;18.22;69.57;100491.17;107469;1251;108989;-68
2023/07/01 02:41:28;;;;;;;;;;;;;;;18.27;69.51;100490.17;107477;1251;107057;-67
2023/07/01 02:43:56;;;;;;;;;;;;;;;18.31;69.61;100492.87;107489;1251;97799;-70
2023/07/01 02:46:27;;;;;;;;;;;;;;;18.36;69.51;100488.60;107474;1251;97694;-67
2023/07/01 02:48:55;;;;;;;;;;;;;;;18.39;69.31;100487.03;107564;1253;111864;-68
2023/07/01 02:51:23;;;;;;;;;;;;;;;18.43;69.06;100490.33;107602;1255;108645;-68
2023/07/01 02:53:52;;;;;;;;;;;;;;;18.47;69.00;100490.70;107481;1253;108186;-66
2023/07/01 02:56:20;;;;;;;;;;;;;;;18.49;68.67;100492.99;107559;1251;97809;-67
2023/07/01 02:58:48;;;;;;;;;;;;;;;18.51;68.77;100492.92;107528;1251;97826;-71
2023/07/01 03:01:16;;;;;;;;;;;;;;;18.55;68.67;100488.81;107481;1254;111789;-68
2023/07/01 03:03:49;;;;;;;;;;;;;;;18.56;68.44;100486.98;107585;1254;108666;-67
2023/07/01 03:06:18;;;;;;;;;;;;;;;18.59;68.57;100492.29;107599;1255;109291;-68
2023/07/01 03:08:46;;;;;;;;;;;;;;;18.63;68.48;100489.44;107486;1254;98309;-68
2023/07/01 03:11:14;;;;;;;;;;;;;;;18.67;68.55;100492.22;107566;1251;97975;-69
2023/07/01 03:13:42;;;;;;;;;;;;;;;18.70;68.42;100490.37;107635;1251;113053;-67
2023/07/01 03:16:11;;;;;;;;;;;;;;;18.73;68.23;100493.25;107541;1251;109088;-70
2023/07/01 03:18:39;;;;;;;;;;;;;;;18.74;68.01;100494.55;107620;1257;107631;-69
2023/07/01 03:21:08;;;;;;;;;;;;;;;18.75;68.04;100494.05;107661;1250;97809;-69
2023/07/01 03:23:36;;;;;;;;;;;;;;;18.76;68.01;100489.21;107631;1251;97774;-66
2023/07/01 03:26:05;;;;;;;;;;;;;;;18.77;67.99;100489.39;107578;1253;111752;-68
2023/07/01 03:28:33;;;;;;;;;;;;;;;18.79;67.98;100487.89;107499;1251;109724;-68
2023/07/01 03:31:04;;;;;;;;;;;;;;;18.80;67.90;100487.85;107619;1253;108253;-67
2023/07/01 03:33:32;;;;;;;;;;;;;;;18.82;68.00;100488.29;107637;1252;97812;-66
2023/07/01 03:36:00;;;;;;;;;;;;;;;18.84;67.85;100482.25;107588;1256;97694;-68
2023/07/01 03:38:28;;;;;;;;;;;;;;;18.85;68.01;100482.48;107587;1251;112101;-68
2023/07/01 03:40:56;;;;;;;;;;;;;;;18.87;67.89;100486.48;107644;1256;109753;-67
2023/07/01 03:43:27;;;;;;;;;;;;;;;18.90;67.91;100489.80;107630;1254;108274;-68
2023/07/01 03:45:55;;;;;;;;;;;;;;;18.92;67.78;100488.80;107629;1251;97867;-66
2023/07/01 03:48:24;;;;;;;;;;;;;;;18.95;67.85;100490.21;107593;1251;97705;-67
2023/07/01 03:50:52;;;;;;;;;;;;;;;19.01;67.65;100486.06;107547;1251;111817;-68
2023/07/01 03:53:20;;;;;;;;;;;;;;;19.05;67.60;100482.75;107562;1251;109675;-68
2023/07/01 03:55:49;;;;;;;;;;;;;;;19.09;67.57;100485.38;107548;1251;107644;-70
2023/07/01 03:58:21;;;;;;;;;;;;;;;19.14;67.41;100484.39;107513;1250;97920;-67
2023/07/01 04:00:50;;;;;;;;;;;;;;;19.18;67.02;100486.02;107522;1251;97825;-69
2023/07/01 04:03:19;;;;;;;;;;;;;;;19.22;67.10;100487.04;107601;1251;112079;-66
2023/07/01 04:05:47;;;;;;;;;;;;;;;19.28;67.20;100488.23;107623;1251;109372;-68
2023/07/01 04:08:15;;;;;;;;;;;;;;;19.33;67.10;100493.02;107501;1251;108275;-68
2023/07/01 04:10:44;;;;;;;;;;;;;;;19.38;67.25;100494.69;107462;1251;97816;-68
2023/07/01 04:13:12;;;;;;;;;;;;;;;19.44;67.26;100498.46;107483;1251;97821;-67
2023/07/01 04:15:40;;;;;;;;;;;;;;;19.51;66.79;100498.52;107467;1251;111916;-68
2023/07/01 04:18:08;;;;;;;;;;;;;;;19.56;66.75;100491.34;107630;1254;110752;-68
2023/07/01 04:20:37;;;;;;;;;;;;;;;19.61;66.69;100491.86;107582;1254;107696;-67
2023/07/01 04:23:06;;;;;;;;;;;;;;;19.67;66.83;100490.20;107555;1251;97825;-67
2023/07/01 04:25:34;;;;;;;;;;;;;;;19.73;66.89;100488.21;107555;1251;97724;-70
2023/07/01 04:28:04;;;;;;;;;;;;;;;19.77;66.87;100492.21;107574;1253;112055;-67
2023/07/01 04:30:32;;;;;;;;;;;;;;;19.81;66.88;100490.38;107647;1256;109558;-66
2023/07/01 04:33:00;;;;;;;;;;;;;;;19.86;66.85;100491.35;107565;1254;108537;-68
2023/07/01 04:35:28;;;;;;;;;;;;;;;19.91;66.81;100487.51;107608;1254;97816;-65
2023/07/01 04:37:56;;;;;;;;;;;;;;;19.95;66.76;100485.81;107549;1254;97976;-67
2023/07/01 04:40:25;;;;;;;;;;;;;;;20.01;66.58;100486.16;107667;1254;111866;-67
2023/07/01 04:42:53;;;;;;;;;;;;;;;20.05;66.34;100485.30;107588;1257;108700;-67
2023/07/01 04:45:21;;;;;;;;;;;;;;;20.07;65.89;100490.11;107555;1252;107755;-68
2023/07/01 04:47:49;;;;;;;;;;;;;;;20.11;65.89;100488.45;107525;1251;97823;-68
2023/07/01 04:50:18;;;;;;;;;;;;;;;20.14;65.61;100488.04;107599;1251;97690;-72
2023/07/01 04:52:46;;;;;;;;;;;;;;;20.17;65.45;100486.58;107528;1251;111909;-67
2023/07/01 04:55:15;;;;;;;;;;;;;;;20.20;65.29;100493.40;107523;1251;109520;-68
2023/07/01 04:57:43;;;;;;;;;;;;;;;20.22;65.09;100497.43;107588;1254;108325;-68
2023/07/01 05:00:12;;;;;;;;;;;;;;;20.25;64.83;100495.26;107612;1254;97895;-68
2023/07/01 05:02:41;;;;;;;;;;;;;;;20.30;64.69;100499.21;107653;1251;97862;-68
2023/07/01 05:05:10;;;;;;;;;;;;;;;20.36;64.87;100501.31;107588;1251;111388;-68
2023/07/01 05:07:38;;;;;;;;;;;;;;;20.43;64.69;100505.08;107528;1251;109260;-67
2023/07/01 05:10:06;;;;;;;;;;;;;;;20.52;64.56;100502.42;107553;1251;108249;-67
2023/07/01 05:12:34;;;;;;;;;;;;;;;20.62;64.54;100497.64;107488;1251;97801;-69
2023/07/01 05:15:02;;;;;;;;;;;;;;;20.71;64.43;100497.98;107547;1251;97803;-68
2023/07/01 05:17:31;;;;;;;;;;;;;;;20.80;64.24;100501.72;107567;1251;112458;-68
2023/07/01 05:19:59;;;;;;;;;;;;;;;20.92;64.12;100501.29;107551;1251;109567;-68
2023/07/01 05:22:27;;;;;;;;;;;;;;;21.01;63.69;100503.27;107501;1251;107442;-67
2023/07/01 05:24:55;;;;;;;;;;;;;;;21.09;63.61;100501.82;107541;1251;97721;-69
2023/07/01 05:27:23;;;;;;;;;;;;;;;21.18;63.32;100503.29;107510;1251;97914;-68
2023/07/01 05:29:52;;;;;;;;;;;;;;;21.27;63.12;100497.49;107689;1253;112219;-68
2023/07/01 05:32:20;;;;;;;;;;;;;;;21.38;62.75;100498.91;107647;1251;109078;-68
2023/07/01 05:34:48;;;;;;;;;;;;;;;21.51;62.46;100498.35;107643;1251;108493;-68
2023/07/01 05:37:16;;;;;;;;;;;;;;;21.66;62.25;100499.26;107575;1251;97896;-67
2023/07/01 05:39:44;;;;;;;;;;;;;;;21.83;62.05;100500.00;107525;1254;97843;-71
2023/07/01 05:42:12;;;;;;;;;;;;;;;21.98;60.92;100500.64;107530;1251;111016;-71
2023/07/01 05:44:41;;;;;;;;;;;;;;;22.13;60.96;100495.33;107520;1254;109384;-67
2023/07/01 05:47:10;;;;;;;;;;;;;;;22.28;59.82;100491.27;107491;1251;108410;-68
2023/07/01 05:49:38;;;;;;;;;;;;;;;22.40;59.27;100490.25;107505;1251;97909;-65
2023/07/01 05:52:07;;;;;;;;;;;;;;;22.53;59.27;100488.42;107581;1254;97807;-66
2023/07/01 05:54:35;;;;;;;;;;;;;;;22.62;59.21;100487.21;107689;1251;112302;-69
2023/07/01 05:57:03;;;;;;;;;;;;;;;22.69;58.74;100478.35;107652;1251;110426;-69
2023/07/01 05:59:31;;;;;;;;;;;;;;;22.74;58.82;100479.95;107628;1251;107723;-67
2023/07/01 06:01:59;;;;;;;;;;;;;;;22.78;58.44;100481.52;107525;1251;97821;-70
2023/07/01 06:04:28;;;;;;;;;;;;;;;22.84;56.23;100478.90;107515;1251;97789;-67
2023/07/01 06:06:56;;;;;;;;;;;;;;;22.89;54.98;100479.40;107544;1251;112232;-68
2023/07/01 06:09:24;;;;;;;;;;;;;;;22.94;54.86;100483.23;107565;1251;109800;-67
2023/07/01 06:11:52;;;;;;;;;;;;;;;23.00;52.92;100487.98;107473;1251;108242;-67
2023/07/01 06:14:21;;;;;;;;;;;;;;;23.08;52.18;100491.29;107510;1251;98012;-67
2023/07/01 06:16:49;;;;;;;;;;;;;;;23.16;52.48;100489.95;107513;1251;97860;-68
2023/07/01 06:19:18;;;;;;;;;;;;;;;23.26;52.59;100486.96;107625;1254;111973;-68
2023/07/01 06:21:46;;;;;;;;;;;;;;;23.38;53.05;100482.35;107706;1251;108617;-67
2023/07/01 06:24:14;;;;;;;;;;;;;;;23.44;52.26;100481.14;107612;1254;108501;-69
2023/07/01 06:26:43;;;;;;;;;;;;;;;23.51;51.62;100476.04;107581;1251;98140;-71
2023/07/01 06:29:11;;;;;;;;;;;;;;;23.59;52.17;100472.64;107656;1253;97863;-68
2023/07/01 06:31:39;;;;;;;;;;;;;;;23.67;52.35;100471.02;107611;1254;110982;-67
2023/07/01 06:34:12;;;;;;;;;;;;;;;23.76;52.93;100470.83;107645;1251;110148;-68
2023/07/01 06:36:40;;;;;;;;;;;;;;;23.84;52.82;100467.05;107625;1251;107730;-71
2023/07/01 06:39:08;;;;;;;;;;;;;;;23.89;52.76;100465.48;107525;1251;97822;-66
2023/07/01 06:41:36;;;;;;;;;;;;;;;23.94;52.72;100464.65;107531;1251;97697;-68
2023/07/01 06:44:07;;;;;;;;;;;;;;;23.98;52.22;100464.01;107616;1254;111784;-66
2023/07/01 06:46:36;;;;;;;;;;;;;;;24.02;51.40;100468.60;107685;1251;110221;-67
2023/07/01 06:49:04;;;;;;;;;;;;;;;24.01;50.97;100464.52;107510;1251;107079;-67
2023/07/01 06:51:32;;;;;;;;;;;;;;;24.03;50.62;100463.42;107636;1254;97834;-68
2023/07/01 06:54:00;;;;;;;;;;;;;;;24.07;51.09;100466.65;107526;1251;97821;-67
2023/07/01 06:56:28;;;;;;;;;;;;;;;24.14;50.88;100466.18;107487;1251;110881;-68
2023/07/01 06:58:56;;;;;;;;;;;;;;;24.18;50.48;100466.34;107605;1251;109781;-69
2023/07/01 07:01:24;;;;;;;;;;;;;;;24.21;50.01;100468.49;107637;1254;108934;-67
2023/07/01 07:03:52;;;;;;;;;;;;;;;24.24;49.74;100467.52;107552;1251;97812;-69
2023/07/01 07:06:20;;;;;;;;;;;;;;;24.34;49.69;100472.19;107522;1250;97717;-67
2023/07/01 07:08:48;;;;;;;;;;;;;;;24.39;49.78;100468.46;107501;1251;110475;-68
2023/07/01 07:11:17;;;;;;;;;;;;;;;24.44;49.43;100470.68;107495;1250;109377;-67
2023/07/01 07:13:45;;;;;;;;;;;;;;;24.48;49.68;100470.11;107492;1251;107889;-66
2023/07/01 07:16:13;;;;;;;;;;;;;;;24.54;48.91;100473.56;107534;1251;97824;-67
2023/07/01 07:18:41;;;;;;;;;;;;;;;24.59;48.98;100473.44;107504;1254;97734;-68
2023/07/01 07:21:10;;;;;;;;;;;;;;;24.65;48.68;100478.47;107545;1251;111408;-66
2023/07/01 07:23:38;;;;;;;;;;;;;;;24.69;47.30;100473.70;107672;1254;109679;-68
2023/07/01 07:26:07;;;;;;;;;;;;;;;24.72;46.08;100477.23;107652;1254;106303;-68
2023/07/01 07:28:38;;;;;;;;;;;;;;;24.76;46.08;100479.52;107681;1254;97855;-69
2023/07/01 07:31:06;;;;;;;;;;;;;;;24.79;46.66;100472.50;107713;1256;97819;-66
2023/07/01 07:33:34;;;;;;;;;;;;;;;24.82;46.62;100471.64;107673;1251;112451;-68
2023/07/01 07:36:03;;;;;;;;;;;;;;;24.86;45.97;100469.36;107510;1251;109827;-67
2023/07/01 07:38:31;;;;;;;;;;;;;;;24.94;46.01;100467.19;107583;1254;107518;-68
2023/07/01 07:40:59;;;;;;;;;;;;;;;25.01;45.94;100465.38;107653;1251;97806;-68
2023/07/01 07:43:27;;;;;;;;;;;;;;;25.07;45.41;100465.23;107683;1251;97808;-68
2023/07/01 07:45:58;;;;;;;;;;;;;;;25.11;44.39;100463.78;107670;1254;112206;-68
2023/07/01 07:48:26;;;;;;;;;;;;;;;25.16;44.25;100456.34;107688;1254;109684;-67
2023/07/01 07:50:54;;;;;;;;;;;;;;;25.22;44.78;100451.75;107623;1252;109548;-66
2023/07/01 07:53:22;;;;;;;;;;;;;;;25.28;45.08;100450.76;107527;1251;97912;-67
2023/07/01 07:55:50;;;;;;;;;;;;;;;25.35;44.42;100449.92;107505;1251;97841;-70
2023/07/01 07:58:18;;;;;;;;;;;;;;;25.40;43.60;100451.55;107527;1251;112311;-66
2023/07/01 08:00:46;;;;;;;;;;;;;;;25.51;43.32;100452.11;107545;1251;109636;-68
2023/07/01 08:03:16;;;;;;;;;;;;;;;25.58;42.47;100449.77;107000;1250;688109;-68
2023/07/01 08:05:44;;;;;;;;;;;;;;;25.64;42.89;100447.86;107640;1253;97870;-68
2023/07/01 08:08:13;;;;;;;;;;;;;;;25.70;43.14;100447.09;107676;1253;97931;-69
2023/07/01 08:10:45;;;;;;;;;;;;;;;25.78;43.27;100445.91;107661;1255;111779;-69
2023/07/01 08:13:14;;;;;;;;;;;;;;;25.84;42.19;100446.70;107662;1255;109677;-71
2023/07/01 08:15:42;;;;;;;;;;;;;;;25.93;42.61;100436.95;107616;1252;107740;-70
2023/07/01 08:18:11;;;;;;;;;;;;;;;26.05;42.92;100434.54;107614;1251;97862;-69
2023/07/01 08:20:39;;;;;;;;;;;;;;;26.15;42.70;100433.36;107637;1251;97797;-72
2023/07/01 08:23:08;;;;;;;;;;;;;;;26.28;42.51;100431.91;107524;1254;111825;-72
2023/07/01 08:25:40;;;;;;;;;;;;;;;26.38;42.70;100431.37;107634;1254;109533;-73
2023/07/01 08:28:08;;;;;;;;;;;;;;;26.50;42.75;100434.20;107621;1251;108524;-69
2023/07/01 08:30:37;;;;;;;;;;;;;;;26.61;42.76;100431.25;107586;1251;97908;-69
2023/07/01 08:33:05;;;;;;;;;;;;;;;26.76;41.97;100432.19;107627;1251;98088;-68
2023/07/01 08:35:33;;;;;;;;;;;;;;;26.88;42.16;100426.05;107668;1251;111943;-67
2023/07/01 08:38:01;;;;;;;;;;;;;;;27.00;41.77;100420.92;107657;1254;108787;-66
2023/07/01 08:40:29;;;;;;;;;;;;;;;27.15;40.91;100427.59;107641;1251;108289;-68
2023/07/01 08:43:02;;;;;;;;;;;;;;;27.32;40.53;100428.73;107605;1251;97898;-68
2023/07/01 08:45:31;;;;;;;;;;;;;;;27.44;40.96;100424.09;107666;1252;97770;-68
2023/07/01 08:47:59;;;;;;;;;;;;;;;27.54;41.41;100423.90;107632;1251;111436;-68
2023/07/01 08:50:34;;;;;;;;;;;;;;;27.67;41.50;100421.78;107556;1250;109945;-68
2023/07/01 08:53:05;;;;;;;;;;;;;;;27.79;40.60;100421.20;107545;1250;107831;-69
2023/07/01 08:55:34;;;;;;;;;;;;;;;27.91;39.30;100423.52;107671;1254;97854;-68
2023/07/01 08:58:02;;;;;;;;;;;;;;;28.02;38.84;100421.36;107625;1254;97825;-70
2023/07/01 09:00:31;;;;;;;;;;;;;;;28.14;38.79;100420.52;107641;1253;111813;-71
2023/07/01 09:03:01;;;;;;;;;;;;;;;28.29;39.31;100411.02;107674;1255;108714;-68
2023/07/01 09:05:30;;;;;;;;;;;;;;;28.47;39.05;100414.20;107654;1254;108158;-69
2023/07/01 09:07:58;;;;;;;;;;;;;;;28.67;36.90;100418.13;107590;1253;97806;-67
2023/07/01 09:10:26;;;;;;;;;;;;;;;28.80;36.86;100407.65;107597;1252;97931;-67
2023/07/01 09:12:54;;;;;;;;;;;;;;;28.98;37.49;100406.42;107543;1254;112939;-68
2023/07/01 09:15:22;;;;;;;;;;;;;;;29.18;36.63;100409.46;107542;1250;110349;-70
2023/07/01 09:17:50;;;;;;;;;;;;;;;29.40;35.57;100409.23;107573;1250;107986;-67
2023/07/01 09:20:18;;;;;;;;;;;;;;;29.60;35.09;100407.98;107558;1251;97819;-70
2023/07/01 09:22:58;;;;;;;;;;;;;;;29.81;34.38;100409.02;107550;1251;97694;-71
2023/07/01 09:25:27;;;;;;;;;;;;;;;30.04;34.19;100406.21;107600;1251;112498;-70
2023/07/01 09:27:56;;;;;;;;;;;;;;;30.13;34.04;100405.48;107652;1254;109006;-70
2023/07/01 09:30:28;;;;;;;;;;;;;;;30.05;33.66;100402.61;107627;1256;108013;-69
2023/07/01 09:33:10;;;;;;;;;;;;;;;29.92;34.00;100396.70;107650;1251;98393;-69
2023/07/01 09:35:42;;;;;;;;;;;;;;;30.04;35.01;100388.79;107540;1254;97829;-68
2023/07/01 09:38:10;;;;;;;;;;;;;;;30.41;34.74;100390.50;107571;1251;110761;-68
2023/07/01 09:40:39;;;;;;;;;;;;;;;30.73;32.95;100392.98;107658;1255;109973;-68
2023/07/01 09:43:08;;;;;;;;;;;;;;;31.01;33.17;100384.59;107591;1254;107082;-69
2023/07/01 09:45:36;;;;;;;;;;;;;;;31.32;33.89;100385.65;107557;1254;97928;-70
2023/07/01 09:48:09;;;;;;;;;;;;;;;31.66;31.95;100383.34;107542;1251;97818;-68
2023/07/01 09:50:38;;;;;;;;;;;;;;;31.97;32.11;100370.27;107567;1251;111377;-68
2023/07/01 09:53:18;;;;;;;;;;;;;;;32.20;30.36;100375.98;107558;1250;109339;-68
2023/07/01 09:55:46;;;;;;;;;;;;;;;32.45;29.10;100373.55;107624;1251;108462;-67
2023/07/01 09:58:18;;;;;;;;;;;;;;;32.61;28.37;100372.98;107589;1253;97847;-67
2023/07/01 10:00:46;;;;;;;;;;;;;;;32.79;29.42;100357.10;107615;1253;97972;-69
2023/07/01 10:03:15;;;;;;;;;;;;;;;33.13;28.93;100360.61;107638;1254;111614;-68
2023/07/01 10:05:45;;;;;;;;;;;;;;;33.37;28.18;100358.46;107625;1254;110639;-67
2023/07/01 10:08:13;;;;;;;;;;;;;;;33.73;28.23;100355.12;107579;1254;108363;-68
2023/07/01 10:10:42;;;;;;;;;;;;;;;34.14;28.38;100348.77;107621;1253;97806;-68
2023/07/01 10:13:11;;;;;;;;;;;;;;;34.59;27.52;100349.50;107660;1253;97890;-69
2023/07/01 10:15:40;;;;;;;;;;;;;;;34.90;26.74;100345.88;107559;1251;112077;-68
2023/07/01 10:18:21;;;;;;;;;;;;;;;35.28;26.04;100343.18;107582;1250;109755;-69
2023/07/01 10:20:52;;;;;;;;;;;;;;;35.57;25.18;100338.59;107586;1251;106889;-66
2023/07/01 10:23:20;;;;;;;;;;;;;;;35.80;24.15;100338.26;107538;1251;97825;-67
2023/07/01 10:25:48;;;;;;;;;;;;;;;35.73;23.99;100335.10;107640;1253;98347;-67
2023/07/01 10:28:26;;;;;;;;;;;;;;;36.10;24.43;100327.39;107668;1254;111791;-68
2023/07/01 10:30:54;;;;;;;;;;;;;;;36.33;24.22;100323.00;107594;1251;110006;-67
2023/07/01 10:33:35;;;;;;;;;;;;;;;36.81;23.84;100321.45;107594;1252;108202;-67
2023/07/01 10:36:08;;;;;;;;;;;;;;;37.39;24.25;100312.17;107608;1251;97909;-66
2023/07/01 10:38:38;;;;;;;;;;;;;;;38.13;24.23;100314.55;107521;1251;97944;-66
2023/07/01 10:41:07;;;;;;;;;;;;;;;38.84;24.02;100312.17;107664;1251;111751;-68
2023/07/01 10:43:39;;;;;;;;;;;;;;;38.58;23.81;100309.42;107563;1251;110195;-67
2023/07/01 10:46:13;;;;;;;;;;;;;;;37.98;23.71;100306.37;107510;1251;106892;-67
2023/07/01 10:48:43;;;;;;;;;;;;;;;37.45;23.53;100309.30;107592;1250;97944;-66
2023/07/01 10:51:12;;;;;;;;;;;;;;;37.75;22.28;100310.56;107547;1251;97807;-67
2023/07/01 10:54:00;;;;;;;;;;;;;;;38.18;22.02;100311.04;107511;1251;111729;-72
2023/07/01 10:56:37;;;;;;;;;;;;;;;38.77;21.28;100308.27;107531;1251;109564;-67
2023/07/01 10:59:17;;;;;;;;;;;;;;;38.65;21.28;100297.74;107504;1254;107796;-68
2023/07/01 11:01:49;;;;;;;;;;;;;;;37.94;21.57;100298.48;107622;1251;98013;-68
2023/07/01 11:04:20;;;;;;;;;;;;;;;38.13;21.89;100300.49;107598;1251;97911;-68
2023/07/01 11:06:53;;;;;;;;;;;;;;;38.64;21.26;100296.02;107575;1250;111639;-67
2023/07/01 11:09:34;;;;;;;;;;;;;;;39.03;20.96;100303.20;107464;1254;109671;-69
2023/07/01 11:12:04;;;;;;;;;;;;;;;39.55;21.15;100296.05;107641;1252;107787;-69
2023/07/01 11:14:41;;;;;;;;;;;;;;;40.18;20.27;100285.20;107615;1251;97930;-69
2023/07/01 11:17:09;;;;;;;;;;;;;;;40.36;19.07;100283.02;107639;1253;97822;-68
2023/07/01 11:19:37;;;;;;;;;;;;;;;40.74;19.99;100274.56;107587;1253;113140;-71
2023/07/01 11:22:09;;;;;;;;;;;;;;;41.36;19.50;100277.38;107676;1251;109851;-68
2023/07/01 11:24:38;;;;;;;;;;;;;;;41.58;18.10;100275.61;107560;1251;108571;-68
2023/07/01 11:27:08;;;;;;;;;;;;;;;41.63;18.29;100272.34;107512;1251;97892;-69
2023/07/01 11:29:37;;;;;;;;;;;;;;;42.08;17.75;100263.59;107560;1251;97776;-68
2023/07/01 11:32:07;;;;;;;;;;;;;;;41.92;17.62;100261.61;107701;1251;111091;-66
2023/07/01 11:34:35;;;;;;;;;;;;;;;42.17;17.10;100260.41;107682;1252;108513;-69
2023/07/01 11:37:04;;;;;;;;;;;;;;;42.52;17.46;100257.35;107586;1251;108277;-67
2023/07/01 11:39:41;;;;;;;;;;;;;;;42.83;16.21;100264.70;107603;1255;97898;-67
2023/07/01 11:42:10;;;;;;;;;;;;;;;42.74;15.78;100253.27;107635;1251;97710;-68
2023/07/01 11:44:39;;;;;;;;;;;;;;;43.11;16.92;100248.02;107620;1253;111962;-67
2023/07/01 11:47:11;;;;;;;;;;;;;;;43.82;17.11;100240.72;107626;1255;110365;-67
2023/07/01 11:49:40;;;;;;;;;;;;;;;44.36;16.35;100241.98;107596;1251;108283;-66
2023/07/01 11:52:08;;;;;;;;;;;;;;;44.40;16.31;100241.16;107553;1251;98483;-67
2023/07/01 11:54:39;;;;;;;;;;;;;;;44.15;15.92;100240.19;107608;1251;97803;-66
2023/07/01 11:57:15;;;;;;;;;;;;;;;44.31;16.06;100236.88;107576;1251;110721;-68
2023/07/01 11:59:47;;;;;;;;;;;;;;;44.60;16.50;100235.73;107621;1251;109981;-66
2023/07/01 12:02:15;;;;;;;;;;;;;;;44.96;15.75;100230.65;107619;1253;108495;-66
2023/07/01 12:04:51;;;;;;;;;;;;;;;45.34;14.46;100236.42;107652;1251;98340;-67
2023/07/01 12:07:20;;;;;;;;;;;;;;;44.57;14.25;100230.70;107616;1255;97714;-67
2023/07/01 12:09:48;;;;;;;;;;;;;;;43.26;15.85;100231.94;107653;1255;112619;-69
2023/07/01 12:12:17;;;;;;;;;;;;;;;42.64;16.07;100230.31;107613;1254;110466;-67
2023/07/01 12:14:45;;;;;;;;;;;;;;;42.69;15.67;100229.38;107553;1254;108330;-69
2023/07/01 12:17:24;;;;;;;;;;;;;;;42.16;16.16;100224.64;107621;1254;97927;-66
2023/07/01 12:19:52;;;;;;;;;;;;;;;41.99;16.94;100215.71;107610;1256;97805;-67
2023/07/01 12:22:20;;;;;;;;;;;;;;;42.75;16.49;100208.11;107651;1251;113242;-66
2023/07/01 12:24:55;;;;;;;;;;;;;;;43.51;15.79;100211.48;107704;1251;108753;-69
2023/07/01 12:27:27;;;;;;;;;;;;;;;44.13;15.01;100208.57;107583;1254;108771;-69
2023/07/01 12:29:56;;;;;;;;;;;;;;;44.34;14.92;100206.32;107597;1254;97823;-70
2023/07/01 12:32:25;;;;;;;;;;;;;;;44.80;14.06;100201.65;107603;1253;97688;-67